sensor_id;sensor_type;location;lat;lon;timestamp;P1;durP1;ratioP1;P2;durP2;ratioP2
17422;SDS011;8829;47.932;7.810;2023-09-12T00:00:04;5.30;;;4.80;;
17422;SDS011;8829;47.932;7.810;2023-09-12T00:02:32;5.67;;;4.73;;
17422;SDS011;8829;47.932;7.810;2023-09-12T00:04:59;5.07;;;4.57;;
17422;SDS011;8829;47.932;7.810;2023-09-12T00:07:25;7.70;;;4.30;;
17422;SDS011;8829;47.932;7.810;2023-09-12T00:09:52;4.93;;;4.43;;
17422;SDS011;8829;47.932;7.810;2023-09-12T00:12:22;5.00;;;4.50;;
17422;SDS011;8829;47.932;7.810;2023-09-12T00:14:50;5.93;;;5.20;;
17422;SDS011;8829;47.932;7.810;2023-09-12T00:17:17;5.27;;;4.87;;
17422;SDS011;8829;47.932;7.810;2023-09-12T00:19:44;5.33;;;4.93;;
17422;SDS011;8829;47.932;7.810;2023-09-12T00:22:11;5.30;;;4.90;;
17422;SDS011;8829;47.932;7.810;2023-09-12T00:24:37;6.40;;;4.47;;
17422;SDS011;8829;47.932;7.810;2023-09-12T00:27:04;5.10;;;4.70;;
17422;SDS011;8829;47.932;7.810;2023-09-12T00:29:31;6.67;;;5.27;;
17422;SDS011;8829;47.932;7.810;2023-09-12T00:31:59;5.67;;;5.00;;
17422;SDS011;8829;47.932;7.810;2023-09-12T00:34:26;5.53;;;5.03;;
17422;SDS011;8829;47.932;7.810;2023-09-12T00:36:52;6.27;;;4.63;;
17422;SDS011;8829;47.932;7.810;2023-09-12T00:39:19;5.23;;;4.83;;
17422;SDS011;8829;47.932;7.810;2023-09-12T00:41:46;5.67;;;5.17;;
17422;SDS011;8829;47.932;7.810;2023-09-12T00:44:12;5.67;;;4.83;;
17422;SDS011;8829;47.932;7.810;2023-09-12T00:46:39;6.23;;;5.20;;
17422;SDS011;8829;47.932;7.810;2023-09-12T00:49:08;10.43;;;5.53;;
17422;SDS011;8829;47.932;7.810;2023-09-12T00:51:35;6.03;;;5.00;;
17422;SDS011;8829;47.932;7.810;2023-09-12T00:54:03;5.77;;;5.17;;
17422;SDS011;8829;47.932;7.810;2023-09-12T00:56:30;5.47;;;4.90;;
17422;SDS011;8829;47.932;7.810;2023-09-12T00:58:56;5.13;;;4.47;;
17422;SDS011;8829;47.932;7.810;2023-09-12T01:01:24;5.57;;;5.07;;
17422;SDS011;8829;47.932;7.810;2023-09-12T01:03:50;7.70;;;4.93;;
17422;SDS011;8829;47.932;7.810;2023-09-12T01:06:19;5.57;;;5.17;;
17422;SDS011;8829;47.932;7.810;2023-09-12T01:08:50;5.47;;;4.93;;
17422;SDS011;8829;47.932;7.810;2023-09-12T01:11:16;6.70;;;4.53;;
17422;SDS011;8829;47.932;7.810;2023-09-12T01:13:43;6.80;;;5.60;;
17422;SDS011;8829;47.932;7.810;2023-09-12T01:16:10;6.93;;;5.33;;
17422;SDS011;8829;47.932;7.810;2023-09-12T01:18:37;5.67;;;5.17;;
17422;SDS011;8829;47.932;7.810;2023-09-12T01:24:06;6.23;;;4.40;;
17422;SDS011;8829;47.932;7.810;2023-09-12T01:26:47;5.90;;;5.20;;
17422;SDS011;8829;47.932;7.810;2023-09-12T01:29:23;5.43;;;5.03;;
17422;SDS011;8829;47.932;7.810;2023-09-12T01:31:52;6.23;;;5.50;;
17422;SDS011;8829;47.932;7.810;2023-09-12T01:34:19;7.70;;;5.37;;
17422;SDS011;8829;47.932;7.810;2023-09-12T01:36:46;5.47;;;5.00;;
17422;SDS011;8829;47.932;7.810;2023-09-12T01:39:13;5.97;;;5.47;;
17422;SDS011;8829;47.932;7.810;2023-09-12T01:41:40;8.03;;;5.17;;
17422;SDS011;8829;47.932;7.810;2023-09-12T01:44:08;5.63;;;5.03;;
17422;SDS011;8829;47.932;7.810;2023-09-12T01:46:38;5.80;;;5.30;;
17422;SDS011;8829;47.932;7.810;2023-09-12T01:49:05;5.57;;;5.07;;
17422;SDS011;8829;47.932;7.810;2023-09-12T01:51:34;5.60;;;4.87;;
17422;SDS011;8829;47.932;7.810;2023-09-12T01:54:02;5.30;;;4.80;;
17422;SDS011;8829;47.932;7.810;2023-09-12T01:56:30;5.50;;;4.83;;
17422;SDS011;8829;47.932;7.810;2023-09-12T01:58:57;5.83;;;5.23;;
17422;SDS011;8829;47.932;7.810;2023-09-12T02:01:24;5.73;;;5.07;;
17422;SDS011;8829;47.932;7.810;2023-09-12T02:03:53;5.37;;;4.90;;
17422;SDS011;8829;47.932;7.810;2023-09-12T02:06:20;6.63;;;5.10;;
17422;SDS011;8829;47.932;7.810;2023-09-12T02:08:47;7.40;;;5.57;;
17422;SDS011;8829;47.932;7.810;2023-09-12T02:11:14;6.07;;;5.40;;
17422;SDS011;8829;47.932;7.810;2023-09-12T02:13:40;9.40;;;6.03;;
17422;SDS011;8829;47.932;7.810;2023-09-12T02:16:07;8.93;;;5.97;;
17422;SDS011;8829;47.932;7.810;2023-09-12T02:18:34;6.47;;;5.83;;
17422;SDS011;8829;47.932;7.810;2023-09-12T02:21:01;6.40;;;5.80;;
17422;SDS011;8829;47.932;7.810;2023-09-12T02:23:28;6.33;;;5.60;;
17422;SDS011;8829;47.932;7.810;2023-09-12T02:25:55;6.03;;;5.30;;
17422;SDS011;8829;47.932;7.810;2023-09-12T02:28:22;6.57;;;5.13;;
17422;SDS011;8829;47.932;7.810;2023-09-12T02:30:49;5.20;;;4.80;;
17422;SDS011;8829;47.932;7.810;2023-09-12T02:33:16;5.57;;;5.03;;
17422;SDS011;8829;47.932;7.810;2023-09-12T02:35:43;5.37;;;4.80;;
17422;SDS011;8829;47.932;7.810;2023-09-12T02:38:11;5.90;;;5.20;;
17422;SDS011;8829;47.932;7.810;2023-09-12T02:40:37;6.30;;;5.00;;
17422;SDS011;8829;47.932;7.810;2023-09-12T02:43:04;5.40;;;5.00;;
17422;SDS011;8829;47.932;7.810;2023-09-12T02:45:31;7.30;;;5.00;;
17422;SDS011;8829;47.932;7.810;2023-09-12T02:47:58;5.43;;;5.03;;
17422;SDS011;8829;47.932;7.810;2023-09-12T02:50:24;5.73;;;4.90;;
17422;SDS011;8829;47.932;7.810;2023-09-12T02:52:51;5.73;;;5.23;;
17422;SDS011;8829;47.932;7.810;2023-09-12T02:55:19;5.60;;;5.10;;
17422;SDS011;8829;47.932;7.810;2023-09-12T02:57:46;6.43;;;5.77;;
17422;SDS011;8829;47.932;7.810;2023-09-12T03:00:13;5.67;;;5.17;;
17422;SDS011;8829;47.932;7.810;2023-09-12T03:02:39;6.70;;;5.23;;
17422;SDS011;8829;47.932;7.810;2023-09-12T03:05:06;6.50;;;5.80;;
17422;SDS011;8829;47.932;7.810;2023-09-12T03:07:34;6.40;;;5.80;;
17422;SDS011;8829;47.932;7.810;2023-09-12T03:10:01;6.27;;;5.03;;
17422;SDS011;8829;47.932;7.810;2023-09-12T03:12:29;6.67;;;5.43;;
17422;SDS011;8829;47.932;7.810;2023-09-12T03:14:56;6.00;;;4.70;;
17422;SDS011;8829;47.932;7.810;2023-09-12T03:17:23;6.53;;;5.03;;
17422;SDS011;8829;47.932;7.810;2023-09-12T03:19:49;5.80;;;5.30;;
17422;SDS011;8829;47.932;7.810;2023-09-12T03:22:16;5.93;;;5.43;;
17422;SDS011;8829;47.932;7.810;2023-09-12T03:24:43;5.33;;;4.73;;
17422;SDS011;8829;47.932;7.810;2023-09-12T03:27:11;5.73;;;5.13;;
17422;SDS011;8829;47.932;7.810;2023-09-12T03:29:39;8.53;;;6.07;;
17422;SDS011;8829;47.932;7.810;2023-09-12T03:32:05;5.90;;;5.30;;
17422;SDS011;8829;47.932;7.810;2023-09-12T03:34:32;6.37;;;5.77;;
17422;SDS011;8829;47.932;7.810;2023-09-12T03:36:59;6.07;;;5.57;;
17422;SDS011;8829;47.932;7.810;2023-09-12T03:39:25;6.50;;;5.30;;
17422;SDS011;8829;47.932;7.810;2023-09-12T03:41:52;6.13;;;5.53;;
17422;SDS011;8829;47.932;7.810;2023-09-12T03:44:19;5.97;;;5.37;;
17422;SDS011;8829;47.932;7.810;2023-09-12T03:46:47;5.30;;;4.70;;
17422;SDS011;8829;47.932;7.810;2023-09-12T03:49:13;7.37;;;5.63;;
17422;SDS011;8829;47.932;7.810;2023-09-12T03:51:40;7.30;;;5.37;;
17422;SDS011;8829;47.932;7.810;2023-09-12T03:54:07;6.33;;;5.20;;
17422;SDS011;8829;47.932;7.810;2023-09-12T03:56:33;8.13;;;5.60;;
17422;SDS011;8829;47.932;7.810;2023-09-12T03:59:00;5.97;;;5.40;;
17422;SDS011;8829;47.932;7.810;2023-09-12T04:01:27;7.03;;;5.63;;
17422;SDS011;8829;47.932;7.810;2023-09-12T04:03:57;5.90;;;5.40;;
17422;SDS011;8829;47.932;7.810;2023-09-12T04:06:23;6.30;;;5.57;;
17422;SDS011;8829;47.932;7.810;2023-09-12T04:08:50;6.20;;;5.60;;
17422;SDS011;8829;47.932;7.810;2023-09-12T04:11:17;8.40;;;5.60;;
17422;SDS011;8829;47.932;7.810;2023-09-12T04:13:43;8.77;;;5.40;;
17422;SDS011;8829;47.932;7.810;2023-09-12T04:16:10;11.87;;;5.77;;
17422;SDS011;8829;47.932;7.810;2023-09-12T04:18:37;7.73;;;5.70;;
17422;SDS011;8829;47.932;7.810;2023-09-12T04:21:05;14.23;;;6.03;;
17422;SDS011;8829;47.932;7.810;2023-09-12T04:23:31;7.37;;;5.60;;
17422;SDS011;8829;47.932;7.810;2023-09-12T04:25:58;6.93;;;6.07;;
17422;SDS011;8829;47.932;7.810;2023-09-12T04:28:28;8.47;;;5.80;;
17422;SDS011;8829;47.932;7.810;2023-09-12T04:31:00;5.97;;;5.47;;
17422;SDS011;8829;47.932;7.810;2023-09-12T04:33:28;6.67;;;5.23;;
17422;SDS011;8829;47.932;7.810;2023-09-12T04:35:56;8.57;;;5.80;;
17422;SDS011;8829;47.932;7.810;2023-09-12T04:38:25;5.40;;;4.93;;
17422;SDS011;8829;47.932;7.810;2023-09-12T04:40:53;9.47;;;5.70;;
17422;SDS011;8829;47.932;7.810;2023-09-12T04:43:19;8.73;;;6.10;;
17422;SDS011;8829;47.932;7.810;2023-09-12T04:45:46;6.23;;;5.60;;
17422;SDS011;8829;47.932;7.810;2023-09-12T04:48:13;7.37;;;5.97;;
17422;SDS011;8829;47.932;7.810;2023-09-12T04:50:40;6.10;;;5.50;;
17422;SDS011;8829;47.932;7.810;2023-09-12T04:53:07;5.87;;;5.27;;
17422;SDS011;8829;47.932;7.810;2023-09-12T04:55:36;7.10;;;5.00;;
17422;SDS011;8829;47.932;7.810;2023-09-12T04:58:02;5.67;;;5.13;;
17422;SDS011;8829;47.932;7.810;2023-09-12T05:00:30;9.60;;;5.33;;
17422;SDS011;8829;47.932;7.810;2023-09-12T05:02:57;7.27;;;5.17;;
17422;SDS011;8829;47.932;7.810;2023-09-12T05:05:23;5.47;;;5.07;;
17422;SDS011;8829;47.932;7.810;2023-09-12T05:07:50;6.33;;;5.50;;
17422;SDS011;8829;47.932;7.810;2023-09-12T05:10:17;7.23;;;5.43;;
17422;SDS011;8829;47.932;7.810;2023-09-12T05:12:45;7.87;;;5.40;;
17422;SDS011;8829;47.932;7.810;2023-09-12T05:15:12;14.27;;;5.50;;
17422;SDS011;8829;47.932;7.810;2023-09-12T05:17:38;5.60;;;5.10;;
17422;SDS011;8829;47.932;7.810;2023-09-12T05:20:06;5.63;;;5.13;;
17422;SDS011;8829;47.932;7.810;2023-09-12T05:22:33;6.27;;;5.40;;
17422;SDS011;8829;47.932;7.810;2023-09-12T05:25:00;5.03;;;4.63;;
17422;SDS011;8829;47.932;7.810;2023-09-12T05:27:27;7.57;;;5.50;;
17422;SDS011;8829;47.932;7.810;2023-09-12T05:29:55;5.97;;;5.37;;
17422;SDS011;8829;47.932;7.810;2023-09-12T05:32:21;5.87;;;5.17;;
17422;SDS011;8829;47.932;7.810;2023-09-12T05:34:48;5.53;;;5.03;;
17422;SDS011;8829;47.932;7.810;2023-09-12T05:37:15;6.43;;;4.70;;
17422;SDS011;8829;47.932;7.810;2023-09-12T05:39:42;5.37;;;4.87;;
17422;SDS011;8829;47.932;7.810;2023-09-12T05:42:09;6.07;;;4.83;;
17422;SDS011;8829;47.932;7.810;2023-09-12T05:44:35;8.63;;;5.13;;
17422;SDS011;8829;47.932;7.810;2023-09-12T05:47:03;7.13;;;5.53;;
17422;SDS011;8829;47.932;7.810;2023-09-12T05:49:31;6.90;;;5.23;;
17422;SDS011;8829;47.932;7.810;2023-09-12T05:51:59;7.77;;;5.30;;
17422;SDS011;8829;47.932;7.810;2023-09-12T05:54:27;6.20;;;5.60;;
17422;SDS011;8829;47.932;7.810;2023-09-12T05:56:53;5.47;;;4.97;;
17422;SDS011;8829;47.932;7.810;2023-09-12T05:59:20;7.27;;;5.40;;
17422;SDS011;8829;47.932;7.810;2023-09-12T06:01:47;5.73;;;5.23;;
17422;SDS011;8829;47.932;7.810;2023-09-12T06:04:15;5.57;;;5.07;;
17422;SDS011;8829;47.932;7.810;2023-09-12T06:06:42;4.97;;;4.60;;
17422;SDS011;8829;47.932;7.810;2023-09-12T06:09:08;5.40;;;4.90;;
17422;SDS011;8829;47.932;7.810;2023-09-12T06:11:35;5.20;;;4.70;;
17422;SDS011;8829;47.932;7.810;2023-09-12T06:14:02;4.93;;;4.53;;
17422;SDS011;8829;47.932;7.810;2023-09-12T06:16:28;5.77;;;5.27;;
17422;SDS011;8829;47.932;7.810;2023-09-12T06:18:55;17.53;;;8.97;;
17422;SDS011;8829;47.932;7.810;2023-09-12T06:21:23;32.63;;;11.33;;
17422;SDS011;8829;47.932;7.810;2023-09-12T06:26:34;8.67;;;5.77;;
17422;SDS011;8829;47.932;7.810;2023-09-12T06:29:01;12.10;;;6.20;;
17422;SDS011;8829;47.932;7.810;2023-09-12T06:31:28;8.93;;;5.97;;
17422;SDS011;8829;47.932;7.810;2023-09-12T06:33:55;5.80;;;5.07;;
17422;SDS011;8829;47.932;7.810;2023-09-12T06:36:22;5.57;;;4.40;;
17422;SDS011;8829;47.932;7.810;2023-09-12T06:38:50;4.77;;;4.17;;
17422;SDS011;8829;47.932;7.810;2023-09-12T06:41:18;6.77;;;4.23;;
17422;SDS011;8829;47.932;7.810;2023-09-12T06:43:45;6.10;;;5.50;;
17422;SDS011;8829;47.932;7.810;2023-09-12T06:46:11;4.47;;;3.87;;
17422;SDS011;8829;47.932;7.810;2023-09-12T06:48:38;4.33;;;4.00;;
17422;SDS011;8829;47.932;7.810;2023-09-12T06:51:05;4.07;;;3.77;;
17422;SDS011;8829;47.932;7.810;2023-09-12T06:53:35;4.60;;;4.20;;
17422;SDS011;8829;47.932;7.810;2023-09-12T06:56:02;4.07;;;3.67;;
17422;SDS011;8829;47.932;7.810;2023-09-12T06:58:29;4.00;;;3.70;;
17422;SDS011;8829;47.932;7.810;2023-09-12T07:00:56;10.67;;;4.07;;
17422;SDS011;8829;47.932;7.810;2023-09-12T07:03:28;4.17;;;3.60;;
17422;SDS011;8829;47.932;7.810;2023-09-12T07:05:54;3.97;;;3.40;;
17422;SDS011;8829;47.932;7.810;2023-09-12T07:08:21;4.83;;;4.13;;
17422;SDS011;8829;47.932;7.810;2023-09-12T07:10:49;5.77;;;3.73;;
17422;SDS011;8829;47.932;7.810;2023-09-12T07:13:16;3.60;;;3.40;;
17422;SDS011;8829;47.932;7.810;2023-09-12T07:15:42;3.50;;;3.20;;
17422;SDS011;8829;47.932;7.810;2023-09-12T07:18:09;3.73;;;3.43;;
17422;SDS011;8829;47.932;7.810;2023-09-12T07:20:36;3.87;;;3.13;;
17422;SDS011;8829;47.932;7.810;2023-09-12T07:23:02;5.70;;;3.80;;
17422;SDS011;8829;47.932;7.810;2023-09-12T07:25:29;3.50;;;3.20;;
17422;SDS011;8829;47.932;7.810;2023-09-12T07:27:57;3.53;;;3.30;;
17422;SDS011;8829;47.932;7.810;2023-09-12T07:30:24;5.43;;;3.90;;
17422;SDS011;8829;47.932;7.810;2023-09-12T07:32:51;3.60;;;3.30;;
17422;SDS011;8829;47.932;7.810;2023-09-12T07:35:17;3.80;;;3.50;;
17422;SDS011;8829;47.932;7.810;2023-09-12T07:37:45;6.10;;;3.57;;
17422;SDS011;8829;47.932;7.810;2023-09-12T07:40:12;7.30;;;3.70;;
17422;SDS011;8829;47.932;7.810;2023-09-12T07:42:39;5.00;;;3.80;;
17422;SDS011;8829;47.932;7.810;2023-09-12T07:45:07;3.50;;;3.20;;
17422;SDS011;8829;47.932;7.810;2023-09-12T07:47:34;3.40;;;3.20;;
17422;SDS011;8829;47.932;7.810;2023-09-12T07:50:01;3.10;;;2.90;;
17422;SDS011;8829;47.932;7.810;2023-09-12T07:52:29;5.00;;;3.40;;
17422;SDS011;8829;47.932;7.810;2023-09-12T07:54:58;3.37;;;3.07;;
17422;SDS011;8829;47.932;7.810;2023-09-12T07:57:26;3.70;;;3.30;;
17422;SDS011;8829;47.932;7.810;2023-09-12T07:59:53;4.28;;;3.10;;
17422;SDS011;8829;47.932;7.810;2023-09-12T08:02:21;4.00;;;3.60;;
17422;SDS011;8829;47.932;7.810;2023-09-12T08:04:48;3.70;;;3.10;;
17422;SDS011;8829;47.932;7.810;2023-09-12T08:07:16;5.57;;;3.58;;
17422;SDS011;8829;47.932;7.810;2023-09-12T08:09:50;4.03;;;3.40;;
17422;SDS011;8829;47.932;7.810;2023-09-12T08:12:18;3.72;;;3.42;;
17422;SDS011;8829;47.932;7.810;2023-09-12T08:14:45;4.35;;;3.80;;
17422;SDS011;8829;47.932;7.810;2023-09-12T08:17:12;3.40;;;3.20;;
17422;SDS011;8829;47.932;7.810;2023-09-12T08:19:41;4.80;;;3.40;;
17422;SDS011;8829;47.932;7.810;2023-09-12T08:22:08;3.40;;;3.20;;
17422;SDS011;8829;47.932;7.810;2023-09-12T08:24:35;5.85;;;3.70;;
17422;SDS011;8829;47.932;7.810;2023-09-12T08:27:03;3.80;;;3.50;;
17422;SDS011;8829;47.932;7.810;2023-09-12T08:29:30;3.75;;;3.45;;
17422;SDS011;8829;47.932;7.810;2023-09-12T08:31:57;4.00;;;3.08;;
17422;SDS011;8829;47.932;7.810;2023-09-12T08:34:24;3.75;;;3.38;;
17422;SDS011;8829;47.932;7.810;2023-09-12T08:36:52;3.55;;;3.25;;
17422;SDS011;8829;47.932;7.810;2023-09-12T08:39:22;3.38;;;3.08;;
17422;SDS011;8829;47.932;7.810;2023-09-12T08:41:50;4.78;;;3.40;;
17422;SDS011;8829;47.932;7.810;2023-09-12T08:44:18;4.97;;;3.58;;
17422;SDS011;8829;47.932;7.810;2023-09-12T08:46:45;3.92;;;2.97;;
17422;SDS011;8829;47.932;7.810;2023-09-12T08:49:12;3.78;;;3.50;;
17422;SDS011;8829;47.932;7.810;2023-09-12T08:51:39;4.30;;;3.85;;
17422;SDS011;8829;47.932;7.810;2023-09-12T08:54:08;4.05;;;3.65;;
17422;SDS011;8829;47.932;7.810;2023-09-12T08:56:35;7.47;;;3.85;;
17422;SDS011;8829;47.932;7.810;2023-09-12T08:59:05;3.95;;;3.63;;
17422;SDS011;8829;47.932;7.810;2023-09-12T09:01:32;4.32;;;3.92;;
17422;SDS011;8829;47.932;7.810;2023-09-12T09:04:00;5.35;;;3.90;;
17422;SDS011;8829;47.932;7.810;2023-09-12T09:06:28;5.75;;;4.25;;
17422;SDS011;8829;47.932;7.810;2023-09-12T09:08:57;4.25;;;3.95;;
17422;SDS011;8829;47.932;7.810;2023-09-12T09:11:27;4.22;;;3.80;;
17422;SDS011;8829;47.932;7.810;2023-09-12T09:13:54;6.40;;;4.57;;
17422;SDS011;8829;47.932;7.810;2023-09-12T09:16:21;4.60;;;4.20;;
17422;SDS011;8829;47.932;7.810;2023-09-12T09:18:50;5.05;;;4.32;;
17422;SDS011;8829;47.932;7.810;2023-09-12T09:21:17;4.75;;;4.35;;
17422;SDS011;8829;47.932;7.810;2023-09-12T09:23:44;5.53;;;4.32;;
17422;SDS011;8829;47.932;7.810;2023-09-12T09:26:12;5.95;;;4.38;;
17422;SDS011;8829;47.932;7.810;2023-09-12T09:28:40;4.00;;;3.70;;
17422;SDS011;8829;47.932;7.810;2023-09-12T09:31:10;4.50;;;4.10;;
17422;SDS011;8829;47.932;7.810;2023-09-12T09:33:37;3.85;;;3.55;;
17422;SDS011;8829;47.932;7.810;2023-09-12T09:36:10;4.07;;;3.67;;
17422;SDS011;8829;47.932;7.810;2023-09-12T09:38:37;4.68;;;3.85;;
17422;SDS011;8829;47.932;7.810;2023-09-12T09:41:04;4.45;;;4.05;;
17422;SDS011;8829;47.932;7.810;2023-09-12T09:43:32;4.05;;;3.42;;
17422;SDS011;8829;47.932;7.810;2023-09-12T09:46:00;4.20;;;3.35;;
17422;SDS011;8829;47.932;7.810;2023-09-12T09:48:28;3.88;;;3.50;;
17422;SDS011;8829;47.932;7.810;2023-09-12T09:50:59;3.55;;;3.35;;
17422;SDS011;8829;47.932;7.810;2023-09-12T09:53:28;3.13;;;2.92;;
17422;SDS011;8829;47.932;7.810;2023-09-12T09:56:09;16.20;;;6.03;;
17422;SDS011;8829;47.932;7.810;2023-09-12T09:58:36;5.53;;;3.60;;
17422;SDS011;8829;47.932;7.810;2023-09-12T10:01:09;3.55;;;3.25;;
17422;SDS011;8829;47.932;7.810;2023-09-12T10:03:37;3.60;;;3.30;;
17422;SDS011;8829;47.932;7.810;2023-09-12T10:06:05;3.97;;;3.25;;
17422;SDS011;8829;47.932;7.810;2023-09-12T10:08:33;39.50;;;12.07;;
17422;SDS011;8829;47.932;7.810;2023-09-12T10:11:01;85.10;;;15.90;;
17422;SDS011;8829;47.932;7.810;2023-09-12T10:13:29;11.60;;;4.70;;
17422;SDS011;8829;47.932;7.810;2023-09-12T10:15:58;4.05;;;3.30;;
17422;SDS011;8829;47.932;7.810;2023-09-12T10:18:28;9.32;;;4.15;;
17422;SDS011;8829;47.932;7.810;2023-09-12T10:21:02;6.07;;;3.22;;
17422;SDS011;8829;47.932;7.810;2023-09-12T10:23:34;31.20;;;6.47;;
17422;SDS011;8829;47.932;7.810;2023-09-12T10:26:06;5.32;;;3.25;;
17422;SDS011;8829;47.932;7.810;2023-09-12T10:28:35;4.40;;;3.38;;
17422;SDS011;8829;47.932;7.810;2023-09-12T10:31:02;5.20;;;3.45;;
17422;SDS011;8829;47.932;7.810;2023-09-12T10:33:32;3.50;;;3.10;;
17422;SDS011;8829;47.932;7.810;2023-09-12T10:35:59;4.25;;;3.40;;
17422;SDS011;8829;47.932;7.810;2023-09-12T10:38:26;4.35;;;3.97;;
17422;SDS011;8829;47.932;7.810;2023-09-12T10:40:54;4.40;;;3.33;;
17422;SDS011;8829;47.932;7.810;2023-09-12T10:43:21;3.33;;;3.13;;
17422;SDS011;8829;47.932;7.810;2023-09-12T10:45:50;3.10;;;2.90;;
17422;SDS011;8829;47.932;7.810;2023-09-12T10:48:18;4.20;;;2.90;;
17422;SDS011;8829;47.932;7.810;2023-09-12T10:50:46;4.22;;;3.10;;
17422;SDS011;8829;47.932;7.810;2023-09-12T10:53:14;6.50;;;3.30;;
17422;SDS011;8829;47.932;7.810;2023-09-12T10:55:42;3.30;;;3.00;;
17422;SDS011;8829;47.932;7.810;2023-09-12T10:58:24;3.20;;;3.00;;
17422;SDS011;8829;47.932;7.810;2023-09-12T11:03:49;3.40;;;3.10;;
17422;SDS011;8829;47.932;7.810;2023-09-12T11:06:21;7.85;;;3.75;;
17422;SDS011;8829;47.932;7.810;2023-09-12T11:11:45;4.05;;;3.28;;
17422;SDS011;8829;47.932;7.810;2023-09-12T11:14:13;4.13;;;3.80;;
17422;SDS011;8829;47.932;7.810;2023-09-12T11:16:41;5.75;;;3.75;;
17422;SDS011;8829;47.932;7.810;2023-09-12T11:19:11;6.43;;;3.50;;
17422;SDS011;8829;47.932;7.810;2023-09-12T11:21:41;3.67;;;3.20;;
17422;SDS011;8829;47.932;7.810;2023-09-12T11:24:08;4.05;;;3.63;;
17422;SDS011;8829;47.932;7.810;2023-09-12T11:26:44;3.95;;;3.65;;
17422;SDS011;8829;47.932;7.810;2023-09-12T11:29:22;7.15;;;3.58;;
17422;SDS011;8829;47.932;7.810;2023-09-12T11:31:54;3.33;;;3.13;;
17422;SDS011;8829;47.932;7.810;2023-09-12T11:34:23;3.83;;;3.35;;
17422;SDS011;8829;47.932;7.810;2023-09-12T11:36:55;3.17;;;2.88;;
17422;SDS011;8829;47.932;7.810;2023-09-12T11:39:23;4.75;;;3.70;;
17422;SDS011;8829;47.932;7.810;2023-09-12T11:41:50;5.05;;;3.45;;
17422;SDS011;8829;47.932;7.810;2023-09-12T11:44:18;3.67;;;3.35;;
17422;SDS011;8829;47.932;7.810;2023-09-12T11:46:47;6.97;;;3.65;;
17422;SDS011;8829;47.932;7.810;2023-09-12T11:49:15;3.45;;;3.25;;
17422;SDS011;8829;47.932;7.810;2023-09-12T11:51:46;4.28;;;3.97;;
17422;SDS011;8829;47.932;7.810;2023-09-12T11:54:15;3.75;;;3.40;;
17422;SDS011;8829;47.932;7.810;2023-09-12T11:56:44;7.20;;;3.50;;
17422;SDS011;8829;47.932;7.810;2023-09-12T11:59:12;6.03;;;3.60;;
17422;SDS011;8829;47.932;7.810;2023-09-12T12:01:39;4.22;;;3.70;;
17422;SDS011;8829;47.932;7.810;2023-09-12T12:04:05;3.65;;;3.35;;
17422;SDS011;8829;47.932;7.810;2023-09-12T12:06:32;4.15;;;3.55;;
17422;SDS011;8829;47.932;7.810;2023-09-12T12:09:00;6.20;;;3.58;;
17422;SDS011;8829;47.932;7.810;2023-09-12T12:11:30;3.95;;;3.65;;
17422;SDS011;8829;47.932;7.810;2023-09-12T12:13:57;91.07;;;8.75;;
17422;SDS011;8829;47.932;7.810;2023-09-12T12:16:25;5.70;;;3.53;;
17422;SDS011;8829;47.932;7.810;2023-09-12T12:18:52;7.68;;;4.63;;
17422;SDS011;8829;47.932;7.810;2023-09-12T12:21:20;4.85;;;3.70;;
17422;SDS011;8829;47.932;7.810;2023-09-12T12:23:56;8.52;;;3.97;;
17422;SDS011;8829;47.932;7.810;2023-09-12T12:26:24;4.93;;;3.80;;
17422;SDS011;8829;47.932;7.810;2023-09-12T12:28:52;8.32;;;4.10;;
17422;SDS011;8829;47.932;7.810;2023-09-12T12:31:19;9.90;;;4.60;;
17422;SDS011;8829;47.932;7.810;2023-09-12T12:33:49;5.28;;;3.83;;
17422;SDS011;8829;47.932;7.810;2023-09-12T12:36:18;3.63;;;3.25;;
17422;SDS011;8829;47.932;7.810;2023-09-12T12:38:46;4.78;;;4.00;;
17422;SDS011;8829;47.932;7.810;2023-09-12T12:41:13;5.30;;;3.67;;
17422;SDS011;8829;47.932;7.810;2023-09-12T12:43:40;6.10;;;4.03;;
17422;SDS011;8829;47.932;7.810;2023-09-12T12:46:11;4.30;;;3.90;;
17422;SDS011;8829;47.932;7.810;2023-09-12T12:48:38;5.03;;;3.70;;
17422;SDS011;8829;47.932;7.810;2023-09-12T12:51:13;4.40;;;3.90;;
17422;SDS011;8829;47.932;7.810;2023-09-12T12:53:42;3.63;;;3.33;;
17422;SDS011;8829;47.932;7.810;2023-09-12T12:56:11;4.10;;;3.80;;
17422;SDS011;8829;47.932;7.810;2023-09-12T12:58:44;5.45;;;4.10;;
17422;SDS011;8829;47.932;7.810;2023-09-12T13:01:13;4.35;;;4.00;;
17422;SDS011;8829;47.932;7.810;2023-09-12T13:03:40;5.55;;;3.67;;
17422;SDS011;8829;47.932;7.810;2023-09-12T13:06:07;5.30;;;3.70;;
17422;SDS011;8829;47.932;7.810;2023-09-12T13:08:38;5.72;;;3.83;;
17422;SDS011;8829;47.932;7.810;2023-09-12T13:11:05;3.95;;;3.65;;
17422;SDS011;8829;47.932;7.810;2023-09-12T13:13:32;3.85;;;3.55;;
17422;SDS011;8829;47.932;7.810;2023-09-12T13:15:58;4.13;;;3.78;;
17422;SDS011;8829;47.932;7.810;2023-09-12T13:18:27;5.78;;;3.67;;
17422;SDS011;8829;47.932;7.810;2023-09-12T13:20:53;5.00;;;3.97;;
17422;SDS011;8829;47.932;7.810;2023-09-12T13:23:20;3.60;;;3.30;;
17422;SDS011;8829;47.932;7.810;2023-09-12T13:25:49;4.28;;;3.88;;
17422;SDS011;8829;47.932;7.810;2023-09-12T13:28:16;3.95;;;3.55;;
17422;SDS011;8829;47.932;7.810;2023-09-12T13:30:43;5.97;;;3.78;;
17422;SDS011;8829;47.932;7.810;2023-09-12T13:33:10;3.67;;;3.40;;
17422;SDS011;8829;47.932;7.810;2023-09-12T13:35:38;4.57;;;3.85;;
17422;SDS011;8829;47.932;7.810;2023-09-12T13:38:05;4.65;;;3.38;;
17422;SDS011;8829;47.932;7.810;2023-09-12T13:40:35;3.58;;;3.28;;
17422;SDS011;8829;47.932;7.810;2023-09-12T13:43:03;3.58;;;3.28;;
17422;SDS011;8829;47.932;7.810;2023-09-12T13:45:29;3.10;;;2.85;;
17422;SDS011;8829;47.932;7.810;2023-09-12T13:47:57;4.05;;;2.47;;
17422;SDS011;8829;47.932;7.810;2023-09-12T13:50:24;2.72;;;2.53;;
17422;SDS011;8829;47.932;7.810;2023-09-12T13:52:52;3.88;;;2.38;;
17422;SDS011;8829;47.932;7.810;2023-09-12T13:55:19;3.95;;;3.15;;
17422;SDS011;8829;47.932;7.810;2023-09-12T13:57:46;3.40;;;2.72;;
17422;SDS011;8829;47.932;7.810;2023-09-12T14:00:13;4.25;;;2.90;;
17422;SDS011;8829;47.932;7.810;2023-09-12T14:02:40;4.15;;;2.60;;
17422;SDS011;8829;47.932;7.810;2023-09-12T14:05:07;2.58;;;2.38;;
17422;SDS011;8829;47.932;7.810;2023-09-12T14:07:34;2.78;;;2.58;;
17422;SDS011;8829;47.932;7.810;2023-09-12T14:10:03;2.40;;;2.28;;
17422;SDS011;8829;47.932;7.810;2023-09-12T14:12:30;3.65;;;2.70;;
17422;SDS011;8829;47.932;7.810;2023-09-12T14:14:57;3.08;;;2.78;;
17422;SDS011;8829;47.932;7.810;2023-09-12T14:17:23;4.03;;;2.45;;
17422;SDS011;8829;47.932;7.810;2023-09-12T14:19:50;3.90;;;2.60;;
17422;SDS011;8829;47.932;7.810;2023-09-12T14:22:17;13.75;;;5.40;;
17422;SDS011;8829;47.932;7.810;2023-09-12T14:24:43;3.50;;;3.15;;
17422;SDS011;8829;47.932;7.810;2023-09-12T14:27:11;9.25;;;3.85;;
17422;SDS011;8829;47.932;7.810;2023-09-12T14:29:38;4.45;;;3.08;;
17422;SDS011;8829;47.932;7.810;2023-09-12T14:32:05;4.25;;;3.33;;
17422;SDS011;8829;47.932;7.810;2023-09-12T14:34:31;3.80;;;2.90;;
17422;SDS011;8829;47.932;7.810;2023-09-12T14:36:58;2.85;;;2.65;;
17422;SDS011;8829;47.932;7.810;2023-09-12T14:39:25;3.33;;;3.13;;
17422;SDS011;8829;47.932;7.810;2023-09-12T14:41:52;4.03;;;2.80;;
17422;SDS011;8829;47.932;7.810;2023-09-12T14:44:21;3.00;;;2.80;;
17422;SDS011;8829;47.932;7.810;2023-09-12T14:46:48;3.20;;;3.00;;
17422;SDS011;8829;47.932;7.810;2023-09-12T14:49:14;3.70;;;3.40;;
17422;SDS011;8829;47.932;7.810;2023-09-12T14:51:41;3.47;;;2.83;;
17422;SDS011;8829;47.932;7.810;2023-09-12T14:54:08;3.17;;;2.72;;
17422;SDS011;8829;47.932;7.810;2023-09-12T14:56:35;4.55;;;3.03;;
17422;SDS011;8829;47.932;7.810;2023-09-12T14:59:03;4.43;;;2.80;;
17422;SDS011;8829;47.932;7.810;2023-09-12T15:01:32;3.83;;;2.97;;
17422;SDS011;8829;47.932;7.810;2023-09-12T15:03:59;3.38;;;3.08;;
17422;SDS011;8829;47.932;7.810;2023-09-12T15:06:27;5.30;;;3.60;;
17422;SDS011;8829;47.932;7.810;2023-09-12T15:08:57;3.63;;;3.30;;
17422;SDS011;8829;47.932;7.810;2023-09-12T15:11:24;3.20;;;3.00;;
17422;SDS011;8829;47.932;7.810;2023-09-12T15:13:51;4.82;;;3.30;;